Sitka, AK

10:06 AM AKDT on July 23, 2016 (GMT -0800)
Sitka Rocky Gutierrez | | Change Station

Elev 20 ft 57.05 °N, 135.36 °W | Updated 13 minutes ago

Light Rain
Light Rain Mist
58 °F
Feels Like 58 °F
N
16
Wind Variable Wind from South
Gusts 29 mph

Today
High -- | Low -- °F
--% Chance of Precip.
Yesterday
High -- | Low -- °F
Precip. -- in
Pressure 29.73 in
Visibility 3.0 miles
Clouds Scattered Clouds 1200 ft
Overcast 2000 ft
Dew Point 55 °F
Humidity 90%
Rainfall 0.27 in
Snow Depth Not available.
4:44 AM 9:30 PM
Waning Gibbous, 83% visible
METAR PASI 231753Z 17014G25KT 3SM -RA BR SCT012 OVC020 14/13 A2972 RMK AO2 SLP065 P0003 60019 T01440128 10144 20139 53002
Pressure 29.73 in
Visibility 3.0 miles
Clouds Scattered Clouds 1200 ft
Overcast 2000 ft
Dew Point 55 °F
Humidity 90%
Rainfall 0.27 in
Snow Depth Not available.
4:44 AM 9:30 PM
Waning Gibbous, 83% visible
METAR PASI 231753Z 17014G25KT 3SM -RA BR SCT012 OVC020 14/13 A2972 RMK AO2 SLP065 P0003 60019 T01440128 10144 20139 53002

10-Day Weather Forecast

Almanac

Astronomy

Jul. 23, 2016 Rise Set
Actual Time
Civil Twilight
Nautical Twilight
Astronomical Twilight
Moon
Length of Visible Light
Length of Day
Tomorrow will be .
, % of the Moon is Illuminated

Today's Extremes

State Highs State Lows

Community

WunderPhotos

Upload Photos

1,926,878 photos uploaded!

WunderBlog® & News

Nearby

Air Quality

  Air Quality AQ Index Pollutant
Not available.

Snow Depth

Station Depth Elevation

Earthquake Activity

City Distance Mag. Time & Date
Minimum magnitude displayed is 2.5.

Coastal Water Temperatures

Place Temperature

Stations

Nearby Weather Stations

Station Location Temp. Windchill Dew Point Humidity Wind Precip. Elev Updated Type
                   

Watches & Warnings

There are currently no watches in effect.